Time;durP1;ratioP1;P1;durP2;ratioP2;P2;SDS_P1;SDS_P2;PMS_P1;PMS_P2;Temp;Humidity;BMP_temperature;BMP_pressure;BME280_temperature;BME280_humidity;BME280_pressure;Samples;Min_cycle;Max_cycle;Signal;HPM_P1;HPM_P2
2022/09/29 00:01:37;;;;;;;32.10;18.90;;;;;;;5.65;97.06;99452.53;7398606;19;20086;-68
2022/09/29 00:04:06;;;;;;;28.98;18.45;;;;;;;5.62;97.13;99443.94;7399413;19;20074;-68
2022/09/29 00:06:34;;;;;;;32.38;18.67;;;;;;;5.60;97.09;99445.72;7398415;19;20046;-68
2022/09/29 00:09:03;;;;;;;29.73;18.15;;;;;;;5.58;97.27;99447.50;7398043;19;20078;-69
2022/09/29 00:11:31;;;;;;;32.28;18.88;;;;;;;5.55;97.11;99440.63;7398461;19;20086;-69
2022/09/29 00:14:00;;;;;;;31.58;18.70;;;;;;;5.52;97.21;99445.88;7398531;19;20420;-69
2022/09/29 00:16:28;;;;;;;29.92;18.10;;;;;;;5.50;97.01;99442.47;7396100;19;20036;-69
2022/09/29 00:18:59;;;;;;;27.52;17.42;;;;;;;5.44;97.20;99440.00;7397955;19;20029;-68
2022/09/29 00:21:28;;;;;;;28.48;19.10;;;;;;;5.47;96.99;99450.31;7398860;19;20505;-69
2022/09/29 00:23:56;;;;;;;28.00;18.50;;;;;;;5.44;97.09;99459.06;7398251;19;20078;-69
2022/09/29 00:26:26;;;;;;;29.90;18.80;;;;;;;5.40;97.14;99462.63;7395760;19;20082;-70
2022/09/29 00:28:57;;;;;;;30.40;18.98;;;;;;;5.39;96.98;99461.75;7397200;19;20014;-69
2022/09/29 00:31:26;;;;;;;30.95;19.40;;;;;;;5.37;97.24;99462.66;7397795;19;20500;-70
2022/09/29 00:33:55;;;;;;;36.47;21.35;;;;;;;5.36;97.15;99468.78;7396068;19;20074;-70
2022/09/29 00:36:28;;;;;;;31.52;19.38;;;;;;;5.34;97.02;99467.94;7396307;19;20015;-69
2022/09/29 00:38:58;;;;;;;32.80;20.13;;;;;;;5.32;97.17;99461.91;7397745;19;20015;-69
2022/09/29 00:41:28;;;;;;;27.55;18.35;;;;;;;5.30;97.25;99471.50;7397694;19;20018;-70
2022/09/29 00:44:00;;;;;;;28.58;18.80;;;;;;;5.27;96.97;99476.75;7398237;19;20018;-70
2022/09/29 00:46:40;;;;;;;25.60;17.30;;;;;;;5.22;96.92;99461.25;7397940;19;20101;-69
2022/09/29 00:49:16;;;;;;;28.85;18.23;;;;;;;5.20;97.06;99469.06;7397104;19;20086;-69
2022/09/29 00:51:50;;;;;;;27.58;16.88;;;;;;;5.18;97.06;99467.38;7397036;19;20086;-70
2022/09/29 00:54:20;;;;;;;30.00;18.70;;;;;;;5.16;97.13;99475.22;7395724;19;20014;-70
2022/09/29 00:56:51;;;;;;;26.35;17.50;;;;;;;5.13;97.29;99472.69;7395448;19;20086;-70
2022/09/29 00:59:27;;;;;;;25.42;16.83;;;;;;;5.11;97.26;99471.88;7396609;19;20074;-70
2022/09/29 01:01:56;;;;;;;25.85;16.38;;;;;;;5.06;97.11;99474.53;7396680;19;20049;-69
2022/09/29 01:04:24;;;;;;;27.80;17.15;;;;;;;5.04;97.00;99467.66;7398243;19;20011;-69
2022/09/29 01:06:58;;;;;;;25.58;17.40;;;;;;;4.99;96.99;99472.97;7399059;19;20102;-69
2022/09/29 01:09:30;;;;;;;27.38;16.50;;;;;;;4.95;96.96;99475.66;7398879;19;20074;-69
2022/09/29 01:12:00;;;;;;;23.23;16.13;;;;;;;4.88;96.93;99478.38;7401400;19;20010;-70
2022/09/29 01:14:30;;;;;;;25.17;16.08;;;;;;;4.84;96.98;99468.91;7399173;19;20602;-70
2022/09/29 01:16:59;;;;;;;21.15;15.60;;;;;;;4.82;96.85;99475.03;7394936;19;20481;-69
2022/09/29 01:19:40;;;;;;;24.10;16.83;;;;;;;4.79;96.93;99477.66;7394597;19;20078;-69
2022/09/29 01:22:22;;;;;;;20.67;14.52;;;;;;;4.75;97.14;99478.63;7396044;19;20427;-69
2022/09/29 01:24:58;;;;;;;22.40;14.20;;;;;;;4.68;96.83;99483.06;7396789;19;20074;-69
2022/09/29 01:27:42;;;;;;;22.63;14.35;;;;;;;4.63;96.66;99485.75;7395966;19;20015;-69
2022/09/29 01:30:16;;;;;;;24.08;14.93;;;;;;;4.59;96.80;99489.28;7395069;19;20082;-69
2022/09/29 01:33:10;;;;;;;20.75;15.13;;;;;;;4.53;96.77;99494.59;7396356;19;20078;-69
2022/09/29 01:35:49;;;;;;;29.00;16.70;;;;;;;4.47;97.10;99492.94;7395504;19;20033;-70
2022/09/29 01:38:33;;;;;;;25.25;16.05;;;;;;;4.44;97.22;99490.41;7396372;19;20024;-69
2022/09/29 01:41:11;;;;;;;25.15;15.48;;;;;;;4.42;97.11;99491.31;7395900;19;20368;-69
2022/09/29 01:43:44;;;;;;;24.20;15.70;;;;;;;4.40;97.05;99492.19;7395457;19;20015;-69
2022/09/29 01:46:19;;;;;;;25.90;17.50;;;;;;;4.40;97.35;99493.94;7395372;19;20021;-69
2022/09/29 01:48:54;;;;;;;28.30;17.05;;;;;;;4.39;97.08;99497.41;7394920;19;20487;-68
2022/09/29 01:51:26;;;;;;;27.85;17.10;;;;;;;4.36;97.22;99489.66;7395981;19;20015;-70
2022/09/29 01:54:00;;;;;;;28.10;17.35;;;;;;;4.36;97.20;99493.13;7395163;19;20014;-70
2022/09/29 01:56:33;;;;;;;26.83;17.23;;;;;;;4.37;97.38;99493.97;7394010;19;20491;-68
2022/09/29 01:59:07;;;;;;;25.58;16.60;;;;;;;4.37;97.38;99502.63;7395177;19;20078;-68
2022/09/29 02:01:41;;;;;;;33.77;16.73;;;;;;;4.36;97.34;99494.84;7395467;19;20040;-68
2022/09/29 02:04:18;;;;;;;29.75;18.05;;;;;;;4.35;97.40;99501.78;7395577;19;20082;-69
2022/09/29 02:06:51;;;;;;;32.47;17.90;;;;;;;4.35;97.39;99494.00;7394825;19;20019;-69
2022/09/29 02:09:24;;;;;;;33.75;18.13;;;;;;;4.35;97.39;99501.78;7394511;19;20014;-69
2022/09/29 02:11:55;;;;;;;35.43;19.33;;;;;;;4.36;97.64;99500.03;7395455;19;20017;-69
2022/09/29 02:14:27;;;;;;;35.28;18.80;;;;;;;4.40;97.79;99509.53;7395347;19;20079;-69
2022/09/29 02:17:01;;;;;;;35.33;19.05;;;;;;;4.39;97.55;99503.44;7400755;19;20018;-69
2022/09/29 02:19:36;;;;;;;34.83;20.02;;;;;;;4.44;97.87;99507.75;7399324;19;20021;-69
2022/09/29 02:22:04;;;;;;;34.40;19.80;;;;;;;4.46;97.87;99508.56;7402721;19;20082;-69
2022/09/29 02:24:33;;;;;;;30.23;18.95;;;;;;;4.49;97.88;99501.56;7401854;19;20544;-70
2022/09/29 02:27:02;;;;;;;36.05;19.30;;;;;;;4.52;97.77;99500.66;7400643;19;20019;-70
2022/09/29 02:29:31;;;;;;;36.20;19.52;;;;;;;4.54;97.92;99506.69;7399789;19;20559;-70
2022/09/29 02:32:01;;;;;;;29.88;18.23;;;;;;;4.56;97.90;99507.50;7402325;19;20078;-69
2022/09/29 02:34:40;;;;;;;31.80;19.10;;;;;;;4.60;97.98;99517.00;7402116;19;20018;-69
2022/09/29 02:37:28;;;;;;;35.97;20.42;;;;;;;4.63;97.94;99516.91;7399886;19;20090;-68
2022/09/29 02:40:06;;;;;;;33.70;19.52;;;;;;;4.66;98.13;99527.28;7399395;19;20536;-69
2022/09/29 02:42:46;;;;;;;33.15;18.80;;;;;;;4.69;98.06;99522.00;7402162;19;20010;-69
2022/09/29 02:45:30;;;;;;;34.70;18.80;;;;;;;4.70;97.99;99513.34;7401969;19;20033;-70
2022/09/29 02:48:29;;;;;;;33.80;19.17;;;;;;;4.73;98.12;99521.06;7401436;19;20709;-69
2022/09/29 02:51:12;;;;;;;38.55;21.30;;;;;;;4.77;98.06;99527.06;7401786;19;20014;-69
2022/09/29 02:53:54;;;;;;;35.30;19.02;;;;;;;4.79;98.13;99521.84;7400354;19;20070;-69
2022/09/29 02:56:30;;;;;;;36.38;21.42;;;;;;;4.82;98.16;99519.22;7400454;19;20015;-68
2022/09/29 02:59:03;;;;;;;39.53;21.65;;;;;;;4.85;98.39;99522.63;7400934;19;20074;-69
2022/09/29 03:01:33;;;;;;;37.40;22.33;;;;;;;4.87;98.22;99519.97;7400511;19;20082;-69
2022/09/29 03:04:02;;;;;;;38.47;20.77;;;;;;;4.92;98.19;99522.50;7400617;19;20481;-70
2022/09/29 03:06:33;;;;;;;34.25;19.60;;;;;;;4.92;98.23;99519.91;7400481;19;20086;-68
2022/09/29 03:09:02;;;;;;;33.35;19.63;;;;;;;4.96;98.25;99513.75;7399460;19;20036;-69
2022/09/29 03:11:30;;;;;;;30.75;19.42;;;;;;;5.00;98.56;99526.66;7400008;19;20421;-70
2022/09/29 03:13:59;;;;;;;31.77;18.75;;;;;;;5.02;98.44;99521.44;7400570;19;20079;-69
2022/09/29 03:16:27;;;;;;;32.10;18.23;;;;;;;5.03;98.36;99520.53;7399528;19;20388;-69
2022/09/29 03:18:55;;;;;;;35.00;21.42;;;;;;;5.05;98.51;99522.25;7399833;19;20017;-69
2022/09/29 03:21:24;;;;;;;34.72;20.23;;;;;;;5.08;98.46;99525.66;7400259;19;20048;-69
2022/09/29 03:23:55;;;;;;;35.78;20.05;;;;;;;5.10;98.42;99523.91;7400204;19;20097;-69
2022/09/29 03:26:23;;;;;;;33.88;19.63;;;;;;;5.11;98.61;99518.66;7398700;19;20075;-69
2022/09/29 03:28:52;;;;;;;34.65;19.02;;;;;;;5.14;98.65;99523.78;7399454;19;20018;-69
2022/09/29 03:31:20;;;;;;;36.05;20.35;;;;;;;5.16;98.56;99523.78;7400073;19;20023;-69
2022/09/29 03:33:49;;;;;;;33.88;17.45;;;;;;;5.19;98.61;99526.31;7399534;19;20086;-69
2022/09/29 03:36:18;;;;;;;30.50;18.02;;;;;;;5.22;98.57;99527.13;7398522;19;20022;-69
2022/09/29 03:38:46;;;;;;;34.72;19.27;;;;;;;5.24;98.62;99524.47;7398746;19;20741;-69
2022/09/29 03:41:17;;;;;;;37.47;18.65;;;;;;;5.27;98.69;99529.63;7399433;19;20018;-69
2022/09/29 03:43:46;;;;;;;31.58;19.25;;;;;;;5.28;98.82;99530.47;7399698;19;20074;-69
2022/09/29 03:46:14;;;;;;;33.22;18.35;;;;;;;5.30;98.67;99533.91;7396577;19;20082;-70
2022/09/29 03:48:49;;;;;;;33.33;18.23;;;;;;;5.31;98.76;99536.50;7398556;19;20085;-68
2022/09/29 03:51:17;;;;;;;30.63;18.48;;;;;;;5.30;98.84;99534.75;7397066;19;20516;-69
2022/09/29 03:53:46;;;;;;;29.02;17.88;;;;;;;5.31;98.79;99544.28;7398186;19;20074;-68
2022/09/29 03:56:17;;;;;;;31.83;18.92;;;;;;;5.33;98.93;99541.66;7398042;19;20537;-69
2022/09/29 03:58:45;;;;;;;32.28;19.23;;;;;;;5.35;98.78;99547.69;7398409;19;20074;-69
2022/09/29 04:01:14;;;;;;;35.53;19.75;;;;;;;5.37;98.96;99546.78;7398438;19;20441;-69
2022/09/29 04:03:42;;;;;;;41.25;20.25;;;;;;;5.39;98.99;99541.53;7396739;19;20082;-69
2022/09/29 04:06:11;;;;;;;36.22;20.13;;;;;;;5.38;98.95;99545.03;7398146;19;20082;-70
2022/09/29 04:08:39;;;;;;;38.35;21.00;;;;;;;5.43;99.14;99548.38;7396261;19;20023;-68
2022/09/29 04:11:08;;;;;;;39.33;20.27;;;;;;;5.45;99.24;99549.22;7396147;19;20501;-69
2022/09/29 04:13:39;;;;;;;37.30;19.42;;;;;;;5.47;99.19;99543.97;7398524;19;20018;-69
2022/09/29 04:16:08;;;;;;;38.72;21.10;;;;;;;5.48;99.09;99551.75;7398414;19;20031;-68
2022/09/29 04:18:37;;;;;;;36.22;20.40;;;;;;;5.50;99.23;99549.97;7397657;19;20418;-68
2022/09/29 04:21:08;;;;;;;39.20;21.25;;;;;;;5.54;99.37;99553.38;7396990;19;20015;-68
2022/09/29 04:23:37;;;;;;;35.72;20.15;;;;;;;5.57;99.31;99558.50;7397824;19;20036;-68
2022/09/29 04:26:06;;;;;;;36.28;20.00;;;;;;;5.57;99.24;99548.09;7398066;19;20027;-69
2022/09/29 04:28:36;;;;;;;34.08;19.92;;;;;;;5.61;99.56;99560.19;7397959;19;20019;-69
2022/09/29 04:31:07;;;;;;;35.92;21.20;;;;;;;5.62;99.44;99559.28;7398288;19;20019;-69
2022/09/29 04:33:38;;;;;;;36.13;19.98;;;;;;;5.64;99.63;99561.88;7397824;19;20066;-70
2022/09/29 04:36:07;;;;;;;38.45;20.15;;;;;;;5.65;99.40;99555.75;7396832;19;20014;-70
2022/09/29 04:38:35;;;;;;;34.80;18.40;;;;;;;5.67;99.31;99559.19;7395045;19;20024;-69
2022/09/29 04:41:04;;;;;;;32.80;18.58;;;;;;;5.66;99.50;99562.66;7396480;19;20090;-69
2022/09/29 04:43:32;;;;;;;37.55;20.65;;;;;;;5.69;99.70;99570.44;7397467;19;20094;-70
2022/09/29 04:46:09;;;;;;;37.05;20.63;;;;;;;5.69;99.47;99571.28;7395064;19;20086;-70
2022/09/29 04:48:37;;;;;;;35.70;21.23;;;;;;;5.70;99.54;99572.16;7397560;19;20015;-69
2022/09/29 04:51:09;;;;;;;40.88;22.52;;;;;;;5.70;99.60;99573.00;7394433;19;20419;-70
2022/09/29 04:53:38;;;;;;;37.17;20.42;;;;;;;5.70;99.60;99577.34;7396358;19;20036;-70
2022/09/29 04:56:08;;;;;;;38.40;20.33;;;;;;;5.73;99.58;99582.50;7394060;19;20029;-70
2022/09/29 04:58:36;;;;;;;38.60;20.88;;;;;;;5.71;99.66;99577.31;7395964;19;20014;-70
2022/09/29 05:01:13;;;;;;;39.10;20.92;;;;;;;5.74;99.78;99581.59;7396371;19;20031;-70
2022/09/29 05:03:42;;;;;;;37.88;20.88;;;;;;;5.77;99.64;99588.50;7395153;19;20032;-70
2022/09/29 05:06:12;;;;;;;37.35;20.33;;;;;;;5.77;99.61;99581.53;7395223;19;20043;-69
2022/09/29 05:08:40;;;;;;;35.92;20.67;;;;;;;5.78;99.66;99583.25;7395375;19;20035;-70
2022/09/29 05:11:10;;;;;;;38.63;21.52;;;;;;;5.79;99.86;99590.16;7395721;19;20018;-70
2022/09/29 05:13:45;;;;;;;34.95;20.42;;;;;;;5.82;99.88;99591.84;7395573;19;20014;-70
2022/09/29 05:16:16;;;;;;;35.72;20.40;;;;;;;5.82;99.91;99595.31;7393751;19;20510;-69
2022/09/29 05:18:45;;;;;;;35.20;20.33;;;;;;;5.81;99.92;99596.22;7393148;19;20018;-69
2022/09/29 05:21:13;;;;;;;35.60;19.85;;;;;;;5.79;99.83;99594.53;7393340;19;20027;-69
2022/09/29 05:23:42;;;;;;;34.10;20.65;;;;;;;5.79;99.86;99594.53;7394508;19;20044;-70
2022/09/29 05:26:13;;;;;;;37.45;21.23;;;;;;;5.79;99.92;99591.94;7393890;19;20376;-70
2022/09/29 05:28:46;;;;;;;36.55;20.10;;;;;;;5.78;99.93;99595.41;7396121;19;20023;-69
2022/09/29 05:31:17;;;;;;;33.38;18.70;;;;;;;5.77;99.87;99598.91;7394653;19;20019;-69
2022/09/29 05:33:46;;;;;;;35.28;20.15;;;;;;;5.77;100.00;99591.09;7393588;19;20082;-69
2022/09/29 05:36:17;;;;;;;35.00;19.65;;;;;;;5.77;100.00;99601.50;7394936;19;20028;-69
2022/09/29 05:38:46;;;;;;;33.63;20.33;;;;;;;5.77;100.00;99594.53;7393946;19;20087;-69
2022/09/29 05:41:17;;;;;;;36.60;20.85;;;;;;;5.78;100.00;99603.22;7395034;19;20035;-69
2022/09/29 05:43:45;;;;;;;35.05;20.48;;;;;;;5.78;100.00;99604.06;7394807;19;20039;-69
2022/09/29 05:46:18;;;;;;;36.53;20.15;;;;;;;5.79;99.99;99603.19;7394283;19;20014;-69
2022/09/29 05:48:47;;;;;;;36.33;20.48;;;;;;;5.82;99.86;99610.06;7395062;19;21794;-69
2022/09/29 05:51:19;;;;;;;42.92;22.30;;;;;;;5.82;99.99;99610.06;7394902;19;20505;-68
2022/09/29 05:53:48;;;;;;;40.88;21.13;;;;;;;5.82;99.96;99604.88;7395057;19;20018;-69
2022/09/29 05:56:18;;;;;;;40.25;22.27;;;;;;;5.85;100.00;99608.28;7393456;19;20394;-69
2022/09/29 05:58:47;;;;;;;40.20;21.77;;;;;;;5.85;100.00;99608.28;7394229;19;20426;-69
2022/09/29 06:01:21;;;;;;;43.20;22.65;;;;;;;5.87;99.90;99618.66;7394835;19;20031;-69
2022/09/29 06:03:50;;;;;;;46.90;22.33;;;;;;;5.89;100.00;99614.28;7394477;19;20015;-69
2022/09/29 06:06:22;;;;;;;44.13;22.48;;;;;;;5.91;100.00;99616.84;7394377;19;20011;-69
2022/09/29 06:08:51;;;;;;;46.67;23.50;;;;;;;5.93;100.00;99621.13;7393697;19;20172;-69
2022/09/29 06:11:21;;;;;;;46.35;24.33;;;;;;;5.96;100.00;99622.81;7394018;19;20418;-69
2022/09/29 06:13:52;;;;;;;44.45;23.27;;;;;;;5.97;100.00;99617.56;7395295;19;20074;-69
2022/09/29 06:16:25;;;;;;;47.70;24.75;;;;;;;6.01;100.00;99615.78;7394201;19;20027;-69
2022/09/29 06:18:53;;;;;;;47.60;24.30;;;;;;;6.04;100.00;99615.75;7393023;19;20048;-69
2022/09/29 06:21:25;;;;;;;48.22;24.77;;;;;;;6.07;100.00;99622.63;7394548;19;20086;-69
2022/09/29 06:23:55;;;;;;;50.80;25.48;;;;;;;6.11;100.00;99616.47;7394577;19;20010;-70
2022/09/29 06:26:25;;;;;;;49.47;25.05;;;;;;;6.14;100.00;99627.66;7392943;19;20509;-69
2022/09/29 06:28:53;;;;;;;50.83;24.33;;;;;;;6.17;100.00;99627.59;7392014;19;20023;-68
2022/09/29 06:31:27;;;;;;;49.17;25.30;;;;;;;6.22;100.00;99634.44;7393214;19;20028;-70
2022/09/29 06:33:57;;;;;;;49.67;26.38;;;;;;;6.27;100.00;99628.25;7394518;19;20015;-70
2022/09/29 06:39:11;;;;;;;;;;;;;;;6.35;100.00;99628.91;7394026;19;20006;-70
2022/09/29 06:41:40;;;;;;;50.05;25.27;;;;;;;6.39;100.00;99631.47;7391745;19;19936;-70
2022/09/29 06:44:09;;;;;;;50.28;26.52;;;;;;;6.42;99.97;99632.28;7392991;19;20010;-70
2022/09/29 06:46:40;;;;;;;45.50;24.95;;;;;;;6.46;100.00;99633.06;7391396;19;20026;-69
2022/09/29 06:49:08;;;;;;;48.10;26.20;;;;;;;6.50;100.00;99629.50;7391974;19;20015;-68
2022/09/29 06:51:38;;;;;;;51.40;26.85;;;;;;;6.56;99.94;99644.09;7393507;19;20031;-69
2022/09/29 06:54:06;;;;;;;43.38;25.27;;;;;;;6.61;99.87;99629.22;7393014;19;20026;-70
2022/09/29 06:56:35;;;;;;;44.95;24.98;;;;;;;6.65;99.83;99629.13;7393788;19;20022;-70
2022/09/29 06:59:04;;;;;;;47.47;26.17;;;;;;;6.71;99.87;99630.75;7390916;19;20086;-69
2022/09/29 07:01:32;;;;;;;47.17;25.92;;;;;;;6.77;99.78;99630.56;7394688;19;20011;-68
2022/09/29 07:04:03;;;;;;;41.75;24.55;;;;;;;6.83;99.62;99634.78;7402970;19;20032;-69
2022/09/29 07:06:33;;;;;;;43.60;23.65;;;;;;;6.89;99.79;99626.84;7405057;19;20019;-69
2022/09/29 07:09:02;;;;;;;38.13;22.13;;;;;;;6.94;99.42;99629.34;7403552;19;20040;-69
2022/09/29 07:11:30;;;;;;;40.40;23.40;;;;;;;6.99;99.43;99638.75;7403564;19;20022;-69
2022/09/29 07:13:59;;;;;;;37.10;22.00;;;;;;;7.05;99.32;99634.25;7403638;19;20022;-70
2022/09/29 07:16:28;;;;;;;36.08;20.52;;;;;;;7.11;99.15;99636.72;7399458;19;20023;-69
2022/09/29 07:18:56;;;;;;;39.60;24.15;;;;;;;7.16;99.29;99629.63;7402102;19;20425;-70
2022/09/29 07:21:27;;;;;;;33.92;20.92;;;;;;;7.23;99.22;99630.31;7402722;19;20388;-69
2022/09/29 07:23:56;;;;;;;29.17;18.35;;;;;;;7.29;98.71;99635.38;7399092;19;20074;-69
2022/09/29 07:26:24;;;;;;;29.55;19.05;;;;;;;7.35;98.55;99643.06;7398881;19;20018;-69
2022/09/29 07:28:53;;;;;;;27.95;18.15;;;;;;;7.41;98.61;99634.22;7401679;19;20023;-70
2022/09/29 07:31:23;;;;;;;26.85;18.05;;;;;;;7.46;98.17;99643.63;7401018;19;20020;-70
2022/09/29 07:33:52;;;;;;;30.02;19.00;;;;;;;7.53;98.04;99648.69;7399288;19;20416;-69
2022/09/29 07:36:22;;;;;;;25.88;16.85;;;;;;;7.58;97.89;99654.66;7400382;19;20018;-70
2022/09/29 07:38:53;;;;;;;26.92;17.58;;;;;;;7.63;97.74;99653.63;7399877;19;20090;-69
2022/09/29 07:41:24;;;;;;;22.63;15.93;;;;;;;7.70;97.25;99650.88;7399937;19;20019;-69
2022/09/29 07:43:52;;;;;;;27.15;17.10;;;;;;;7.75;97.31;99648.97;7399680;19;20026;-69
2022/09/29 07:46:20;;;;;;;24.50;16.85;;;;;;;7.80;97.31;99652.31;7399561;19;20014;-71
2022/09/29 07:48:49;;;;;;;21.58;15.50;;;;;;;7.86;97.07;99654.75;7401522;19;20026;-69
2022/09/29 07:51:19;;;;;;;24.77;15.88;;;;;;;7.92;96.91;99659.81;7401603;19;20098;-70
2022/09/29 07:53:49;;;;;;;23.25;16.30;;;;;;;7.99;96.60;99661.34;7401160;19;20074;-70
2022/09/29 07:56:22;;;;;;;24.13;15.57;;;;;;;8.02;96.30;99656.94;7398275;19;20153;-70
2022/09/29 07:58:52;;;;;;;21.38;15.02;;;;;;;8.09;95.92;99661.09;7398359;19;20085;-69
2022/09/29 08:01:21;;;;;;;23.30;16.08;;;;;;;8.13;95.64;99663.53;7400951;19;20041;-70
2022/09/29 08:03:52;;;;;;;21.45;14.98;;;;;;;8.18;95.80;99663.44;7398386;19;20027;-70
2022/09/29 08:06:22;;;;;;;20.30;15.23;;;;;;;8.25;95.77;99666.69;7401747;19;20037;-70
2022/09/29 08:08:51;;;;;;;19.90;14.20;;;;;;;8.32;95.31;99666.47;7400675;19;20011;-69
2022/09/29 08:11:23;;;;;;;20.15;15.10;;;;;;;8.40;95.33;99673.25;7400682;19;20035;-70
2022/09/29 08:13:53;;;;;;;22.77;15.55;;;;;;;8.48;95.34;99671.28;7400440;19;20025;-69
2022/09/29 08:16:22;;;;;;;23.15;15.10;;;;;;;8.56;95.07;99661.44;7397318;19;20017;-69
2022/09/29 08:18:51;;;;;;;20.92;14.93;;;;;;;8.65;94.88;99665.53;7397396;19;20081;-69
2022/09/29 08:21:19;;;;;;;18.55;13.88;;;;;;;8.73;94.64;99666.16;7398257;19;20050;-69
2022/09/29 08:23:48;;;;;;;23.45;16.08;;;;;;;8.83;94.38;99679.78;7396735;19;20027;-69
2022/09/29 08:26:18;;;;;;;23.40;15.07;;;;;;;8.92;93.97;99676.03;7396934;19;20074;-69
2022/09/29 08:28:49;;;;;;;20.10;14.23;;;;;;;8.99;93.50;99677.53;7398945;19;20034;-70
2022/09/29 08:31:21;;;;;;;21.50;14.77;;;;;;;9.04;92.76;99680.88;7397248;19;20036;-70
2022/09/29 08:33:51;;;;;;;19.92;14.05;;;;;;;9.12;92.97;99688.47;7398548;19;20376;-69
2022/09/29 08:36:20;;;;;;;20.10;14.70;;;;;;;9.18;92.93;99693.50;7398404;19;20377;-70
2022/09/29 08:38:51;;;;;;;19.88;14.55;;;;;;;9.27;92.68;99692.34;7398098;19;20035;-68
2022/09/29 08:41:36;;;;;;;20.40;15.57;;;;;;;9.35;92.62;99689.47;7396988;19;20018;-69
2022/09/29 08:44:21;;;;;;;20.65;16.13;;;;;;;9.42;91.86;99691.81;7397432;19;20035;-69
2022/09/29 08:46:51;;;;;;;;;;;;;;;9.49;91.85;99692.50;7399783;19;20094;-70
2022/09/29 08:49:24;;;;;;;25.77;17.05;;;;;;;9.58;92.18;99702.63;7397239;19;19974;-69
2022/09/29 08:51:56;;;;;;;22.80;16.10;;;;;;;9.66;91.93;99697.13;7397819;19;20018;-70
2022/09/29 08:54:32;;;;;;;23.38;16.70;;;;;;;9.75;91.84;99698.56;7395901;19;20015;-71
2022/09/29 08:57:01;;;;;;;20.02;15.23;;;;;;;9.84;91.38;99702.63;7396477;19;20104;-71
2022/09/29 08:59:33;;;;;;;18.90;14.05;;;;;;;9.92;90.90;99708.44;7393959;19;20035;-70
2022/09/29 09:02:21;;;;;;;19.27;14.52;;;;;;;10.00;90.71;99710.81;7395436;19;20018;-69
2022/09/29 09:05:14;;;;;;;20.48;16.45;;;;;;;10.09;90.21;99705.22;7396818;19;20031;-70
2022/09/29 09:07:50;;;;;;;22.48;15.90;;;;;;;10.16;89.89;99709.34;7396630;19;20035;-69
2022/09/29 09:10:29;;;;;;;20.63;14.27;;;;;;;10.25;89.85;99713.41;7394364;19;20019;-69
2022/09/29 09:13:19;;;;;;;20.63;13.27;;;;;;;10.32;89.49;99709.63;7394621;19;20010;-71
2022/09/29 09:16:11;;;;;;;22.45;13.07;;;;;;;10.42;88.86;99713.63;7396111;19;20086;-72
2022/09/29 09:19:00;;;;;;;17.25;13.45;;;;;;;10.53;88.60;99723.72;7394516;19;20077;-69
2022/09/29 09:21:35;;;;;;;17.85;13.20;;;;;;;10.60;88.43;99719.09;7395631;19;20095;-69
2022/09/29 09:24:12;;;;;;;17.13;12.52;;;;;;;10.69;87.90;99724.00;7395110;19;20050;-70
2022/09/29 09:26:44;;;;;;;17.73;12.40;;;;;;;10.73;87.61;99719.50;7396655;19;20014;-67
2022/09/29 09:29:20;;;;;;;20.55;13.60;;;;;;;10.82;87.10;99729.63;7394867;19;20078;-68
2022/09/29 09:31:56;;;;;;;15.68;12.60;;;;;;;10.90;87.01;99726.69;7396026;19;20119;-67
2022/09/29 09:34:30;;;;;;;18.52;13.52;;;;;;;10.96;86.45;99730.88;7395621;19;20021;-66
2022/09/29 09:37:04;;;;;;;19.10;13.10;;;;;;;11.03;86.09;99738.44;7394923;19;20074;-66
2022/09/29 09:39:36;;;;;;;;;;;;;;;11.09;85.24;99737.31;7394811;19;20090;-69
2022/09/29 09:42:14;;;;;;;14.77;11.73;;;;;;;11.17;86.23;99737.88;7395073;19;19932;-70
2022/09/29 09:44:48;;;;;;;18.73;13.35;;;;;;;11.21;85.55;99742.09;7395313;19;20392;-70
2022/09/29 09:47:27;;;;;;;15.00;12.27;;;;;;;11.29;84.72;99744.41;7395885;19;20022;-71
2022/09/29 09:49:59;;;;;;;15.88;12.50;;;;;;;11.34;84.69;99750.31;7395404;19;20018;-70
2022/09/29 09:52:35;;;;;;;16.60;13.00;;;;;;;11.41;84.30;99750.91;7395955;19;20074;-70
2022/09/29 09:55:06;;;;;;;14.40;11.68;;;;;;;11.47;83.49;99753.28;7394092;19;20096;-70
2022/09/29 09:57:47;;;;;;;17.00;13.45;;;;;;;11.52;83.05;99746.06;7395564;19;20022;-69
2022/09/29 10:00:18;;;;;;;16.52;12.93;;;;;;;11.56;82.96;99752.91;7393194;19;20035;-69
2022/09/29 10:02:51;;;;;;;15.25;11.30;;;;;;;11.62;82.30;99751.78;7395636;19;20094;-70
2022/09/29 10:05:23;;;;;;;17.15;13.52;;;;;;;11.67;81.61;99754.25;7395062;19;20025;-70
2022/09/29 10:07:52;;;;;;;15.73;12.52;;;;;;;11.70;81.32;99754.09;7394571;19;20507;-70
2022/09/29 10:10:22;;;;;;;17.95;13.98;;;;;;;11.72;81.00;99752.28;7393227;19;20019;-70
2022/09/29 10:12:58;;;;;;;14.25;11.07;;;;;;;11.74;80.30;99748.66;7394713;19;20040;-70
2022/09/29 10:15:31;;;;;;;11.45;10.07;;;;;;;11.79;79.93;99752.84;7393279;19;20086;-69
2022/09/29 10:18:08;;;;;;;23.08;13.90;;;;;;;11.82;79.22;99758.84;7394630;19;20018;-70
2022/09/29 10:20:40;;;;;;;14.55;11.68;;;;;;;11.83;78.91;99747.41;7393146;19;20029;-71
2022/09/29 10:23:28;;;;;;;13.73;10.98;;;;;;;11.89;78.73;99751.53;7395084;19;20022;-70
2022/09/29 10:26:04;;;;;;;11.77;9.10;;;;;;;11.94;78.29;99751.34;7393431;19;20040;-71
2022/09/29 10:28:41;;;;;;;13.23;10.70;;;;;;;11.96;78.00;99750.38;7393178;19;20018;-75
2022/09/29 10:31:19;;;;;;;12.82;10.35;;;;;;;11.97;77.14;99748.63;7395069;19;20044;-70
2022/09/29 10:33:53;;;;;;;13.77;10.73;;;;;;;11.99;77.76;99754.66;7393672;19;20370;-69
2022/09/29 10:36:22;;;;;;;;;;;;;;;11.99;76.31;99757.28;7398381;19;20074;-71
2022/09/29 10:38:53;;;;;;;12.18;10.70;;;;;;;11.96;78.07;99757.44;7399130;19;19932;-71
2022/09/29 10:41:28;;;;;;;12.32;10.93;;;;;;;11.91;77.54;99754.97;7401928;19;20066;-70
2022/09/29 10:43:56;;;;;;;11.48;8.90;;;;;;;11.89;77.47;99756.78;7400794;19;20014;-68
2022/09/29 10:46:50;;;;;;;13.15;10.02;;;;;;;11.85;73.66;99758.72;7400673;19;20018;-71
2022/09/29 10:49:23;;;;;;;12.10;8.90;;;;;;;11.83;76.55;99765.81;7400238;19;20369;-71
2022/09/29 10:51:59;;;;;;;14.97;9.77;;;;;;;11.80;76.38;99759.81;7400885;19;20081;-68
2022/09/29 10:54:29;;;;;;;11.18;9.60;;;;;;;11.78;75.68;99765.16;7401341;19;20025;-68
2022/09/29 10:56:59;;;;;;;12.55;10.07;;;;;;;11.77;75.44;99763.44;7400362;19;20078;-68
2022/09/29 10:59:29;;;;;;;12.82;9.48;;;;;;;11.78;75.51;99767.78;7397519;19;20022;-66
2022/09/29 11:02:01;;;;;;;11.20;9.25;;;;;;;11.80;75.55;99765.91;7400127;19;20566;-66
2022/09/29 11:04:35;;;;;;;10.55;9.20;;;;;;;11.83;75.34;99768.44;7400755;19;20086;-66
2022/09/29 11:07:09;;;;;;;10.45;8.32;;;;;;;11.87;74.97;99762.13;7400319;19;20026;-66
2022/09/29 11:09:40;;;;;;;12.40;8.45;;;;;;;11.90;74.11;99764.63;7398194;19;20018;-68
2022/09/29 11:12:28;;;;;;;10.38;8.70;;;;;;;11.95;73.65;99769.66;7397752;19;20070;-69
2022/09/29 11:21:02;;;;;;;9.32;7.50;;;;;;;12.17;72.67;99769.63;7394147;19;20092;-69
2022/09/29 11:23:39;;;;;;;9.70;7.63;;;;;;;12.28;73.18;99761.25;7398711;19;20019;-68
2022/09/29 11:26:26;;;;;;;8.02;6.80;;;;;;;12.41;72.52;99769.47;7396556;19;20015;-67
2022/09/29 11:29:27;;;;;;;6.63;4.85;;;;;;;12.55;67.46;99768.84;7396064;19;20073;-68
2022/09/29 11:32:14;;;;;;;6.32;4.68;;;;;;;12.62;69.29;99762.38;7396918;19;20010;-70
2022/09/29 11:34:57;;;;;;;5.15;3.88;;;;;;;12.76;68.51;99767.00;7398480;19;20078;-72
2022/09/29 11:37:45;;;;;;;4.45;3.90;;;;;;;12.84;65.43;99771.94;7395922;19;20431;-70
2022/09/29 11:40:21;;;;;;;5.43;3.30;;;;;;;12.92;65.46;99771.56;7397309;19;20078;-69
2022/09/29 11:43:04;;;;;;;4.50;2.92;;;;;;;13.02;64.31;99773.66;7398864;19;20089;-70
2022/09/29 11:45:40;;;;;;;5.13;3.58;;;;;;;13.11;64.99;99763.63;7398694;19;20039;-70
2022/09/29 11:48:36;;;;;;;5.00;4.07;;;;;;;13.18;63.21;99765.03;7396119;19;20031;-70
2022/09/29 11:51:15;;;;;;;4.65;3.35;;;;;;;13.23;60.08;99770.94;7398628;19;20022;-70
2022/09/29 11:54:00;;;;;;;2.90;2.00;;;;;;;13.23;60.11;99768.31;7396569;19;20078;-71
2022/09/29 11:56:36;;;;;;;1.85;1.45;;;;;;;13.22;59.86;99773.63;7398963;19;20031;-70
2022/09/29 11:59:40;;;;;;;4.80;2.00;;;;;;;13.23;58.40;99770.09;7397641;19;20524;-69